sensor_id;sensor_type;location;lat;lon;timestamp;pressure;altitude;pressure_sealevel;temperature;humidity
72570;BME280;60594;50.204;8.844;2022-08-19T00:00:17;99560.69;;;21.05;65.09
72570;BME280;60594;50.204;8.844;2022-08-19T00:03:03;99544.84;;;21.02;65.05
72570;BME280;60594;50.204;8.844;2022-08-19T00:05:30;99554.66;;;21.16;64.63
72570;BME280;60594;50.204;8.844;2022-08-19T00:07:58;99562.59;;;21.11;65.05
72570;BME280;60594;50.204;8.844;2022-08-19T00:10:24;99562.38;;;21.13;64.67
72570;BME280;60594;50.204;8.844;2022-08-19T00:12:51;99562.19;;;21.21;64.29
72570;BME280;60594;50.204;8.844;2022-08-19T00:15:19;99569.28;;;21.28;63.85
72570;BME280;60594;50.204;8.844;2022-08-19T00:17:47;99557.56;;;21.08;65.56
72570;BME280;60594;50.204;8.844;2022-08-19T00:20:18;99552.16;;;21.02;66.36
72570;BME280;60594;50.204;8.844;2022-08-19T00:22:46;99550.69;;;21.12;66.02
72570;BME280;60594;50.204;8.844;2022-08-19T00:25:14;99526.06;;;20.94;65.70
72570;BME280;60594;50.204;8.844;2022-08-19T00:27:41;99541.72;;;20.99;65.99
72570;BME280;60594;50.204;8.844;2022-08-19T00:30:07;99543.63;;;21.05;65.99
72570;BME280;60594;50.204;8.844;2022-08-19T00:32:37;99541.50;;;20.94;66.69
72570;BME280;60594;50.204;8.844;2022-08-19T00:35:04;99534.75;;;20.77;66.49
72570;BME280;60594;50.204;8.844;2022-08-19T00:37:31;99539.13;;;20.84;66.48
72570;BME280;60594;50.204;8.844;2022-08-19T00:39:59;99549.84;;;20.92;65.73
72570;BME280;60594;50.204;8.844;2022-08-19T00:42:25;99536.91;;;20.94;66.02
72570;BME280;60594;50.204;8.844;2022-08-19T00:44:54;99535.81;;;20.89;66.46
72570;BME280;60594;50.204;8.844;2022-08-19T00:47:20;99528.38;;;20.97;65.92
72570;BME280;60594;50.204;8.844;2022-08-19T00:49:51;99529.13;;;20.85;66.56
72570;BME280;60594;50.204;8.844;2022-08-19T00:52:27;99534.09;;;20.75;66.49
72570;BME280;60594;50.204;8.844;2022-08-19T00:54:58;99535.16;;;20.80;66.89
72570;BME280;60594;50.204;8.844;2022-08-19T00:57:27;99528.66;;;20.68;66.80
72570;BME280;60594;50.204;8.844;2022-08-19T00:59:56;99526.44;;;20.85;66.15
72570;BME280;60594;50.204;8.844;2022-08-19T01:02:24;99501.84;;;20.80;66.16
72570;BME280;60594;50.204;8.844;2022-08-19T01:04:50;99520.16;;;20.84;66.72
72570;BME280;60594;50.204;8.844;2022-08-19T01:07:17;99517.69;;;20.83;66.75
72570;BME280;60594;50.204;8.844;2022-08-19T01:09:44;99518.50;;;20.77;67.26
72570;BME280;60594;50.204;8.844;2022-08-19T01:12:11;99518.31;;;20.91;66.38
72570;BME280;60594;50.204;8.844;2022-08-19T01:14:39;99514.78;;;20.91;66.69
72570;BME280;60594;50.204;8.844;2022-08-19T01:17:09;99500.38;;;20.84;66.85
72570;BME280;60594;50.204;8.844;2022-08-19T01:19:40;99506.66;;;20.91;66.88
72570;BME280;60594;50.204;8.844;2022-08-19T01:22:26;99496.06;;;20.96;65.88
72570;BME280;60594;50.204;8.844;2022-08-19T01:24:55;99501.84;;;20.86;66.48
72570;BME280;60594;50.204;8.844;2022-08-19T01:27:21;99493.31;;;20.89;66.54
72570;BME280;60594;50.204;8.844;2022-08-19T01:29:48;99494.31;;;20.75;67.08
72570;BME280;60594;50.204;8.844;2022-08-19T01:32:16;99497.88;;;20.76;67.83
72570;BME280;60594;50.204;8.844;2022-08-19T01:34:42;99506.59;;;20.65;67.71
72570;BME280;60594;50.204;8.844;2022-08-19T01:37:14;99508.06;;;20.67;67.55
72570;BME280;60594;50.204;8.844;2022-08-19T01:39:42;99506.59;;;20.71;67.56
72570;BME280;60594;50.204;8.844;2022-08-19T01:42:09;99507.88;;;20.75;67.45
72570;BME280;60594;50.204;8.844;2022-08-19T01:44:41;99505.75;;;20.71;67.45
72570;BME280;60594;50.204;8.844;2022-08-19T01:47:08;99513.09;;;20.83;67.25
72570;BME280;60594;50.204;8.844;2022-08-19T01:49:36;99495.16;;;20.76;67.16
72570;BME280;60594;50.204;8.844;2022-08-19T01:52:04;99495.97;;;20.76;67.21
72570;BME280;60594;50.204;8.844;2022-08-19T01:54:31;99502.44;;;20.82;67.56
72570;BME280;60594;50.204;8.844;2022-08-19T01:57:04;99504.56;;;20.80;67.31
72570;BME280;60594;50.204;8.844;2022-08-19T01:59:32;99502.06;;;20.91;66.73
72570;BME280;60594;50.204;8.844;2022-08-19T02:02:05;99507.25;;;20.86;67.83
72570;BME280;60594;50.204;8.844;2022-08-19T02:04:35;99516.66;;;20.90;67.27
72570;BME280;60594;50.204;8.844;2022-08-19T02:07:01;99494.31;;;20.75;68.01
72570;BME280;60594;50.204;8.844;2022-08-19T02:09:28;99511.91;;;20.92;67.15
72570;BME280;60594;50.204;8.844;2022-08-19T02:11:54;99491.00;;;20.86;67.02
72570;BME280;60594;50.204;8.844;2022-08-19T02:14:20;99490.16;;;20.86;67.44
72570;BME280;60594;50.204;8.844;2022-08-19T02:16:47;99509.00;;;20.94;67.23
72570;BME280;60594;50.204;8.844;2022-08-19T02:19:14;99511.22;;;20.90;67.39
72570;BME280;60594;50.204;8.844;2022-08-19T02:21:40;99517.03;;;20.81;67.79
72570;BME280;60594;50.204;8.844;2022-08-19T02:24:07;99506.81;;;20.70;68.13
72570;BME280;60594;50.204;8.844;2022-08-19T02:26:33;99536.00;;;20.74;67.87
72570;BME280;60594;50.204;8.844;2022-08-19T02:29:00;99526.41;;;20.78;68.03
72570;BME280;60594;50.204;8.844;2022-08-19T02:31:27;99531.94;;;20.98;67.28
72570;BME280;60594;50.204;8.844;2022-08-19T02:33:55;99534.19;;;20.94;67.50
72570;BME280;60594;50.204;8.844;2022-08-19T02:36:21;99536.22;;;20.86;67.99
72570;BME280;60594;50.204;8.844;2022-08-19T02:38:48;99528.53;;;20.83;68.16
72570;BME280;60594;50.204;8.844;2022-08-19T02:41:23;99531.47;;;20.94;68.12
72570;BME280;60594;50.204;8.844;2022-08-19T02:43:49;99540.47;;;21.08;67.30
72570;BME280;60594;50.204;8.844;2022-08-19T02:46:25;99536.50;;;21.04;67.52
72570;BME280;60594;50.204;8.844;2022-08-19T02:48:56;99543.13;;;20.88;67.99
72570;BME280;60594;50.204;8.844;2022-08-19T02:51:32;99544.22;;;21.07;67.75
72570;BME280;60594;50.204;8.844;2022-08-19T02:53:59;99535.25;;;20.93;68.06
72570;BME280;60594;50.204;8.844;2022-08-19T02:56:26;99542.31;;;21.01;67.81
72570;BME280;60594;50.204;8.844;2022-08-19T02:58:54;99537.53;;;20.96;67.65
72570;BME280;60594;50.204;8.844;2022-08-19T03:01:32;99552.25;;;20.74;68.72
72570;BME280;60594;50.204;8.844;2022-08-19T03:04:01;99536.13;;;20.53;69.16
72570;BME280;60594;50.204;8.844;2022-08-19T03:06:28;99545.09;;;20.54;69.21
72570;BME280;60594;50.204;8.844;2022-08-19T03:08:55;99560.78;;;20.71;69.25
72570;BME280;60594;50.204;8.844;2022-08-19T03:11:23;99550.19;;;20.83;68.93
72570;BME280;60594;50.204;8.844;2022-08-19T03:13:50;99544.22;;;20.94;67.98
72570;BME280;60594;50.204;8.844;2022-08-19T03:16:18;99534.75;;;20.83;68.09
72570;BME280;60594;50.204;8.844;2022-08-19T03:18:45;99540.16;;;20.70;68.86
72570;BME280;60594;50.204;8.844;2022-08-19T03:21:21;99549.94;;;20.71;68.49
72570;BME280;60594;50.204;8.844;2022-08-19T03:23:48;99545.72;;;20.62;69.60
72570;BME280;60594;50.204;8.844;2022-08-19T03:26:15;99553.69;;;20.70;68.94
72570;BME280;60594;50.204;8.844;2022-08-19T03:28:43;99547.69;;;20.88;68.10
72570;BME280;60594;50.204;8.844;2022-08-19T03:31:12;99546.66;;;20.89;67.78
72570;BME280;60594;50.204;8.844;2022-08-19T03:33:41;99545.78;;;20.82;68.15
72570;BME280;60594;50.204;8.844;2022-08-19T03:36:10;99550.81;;;20.78;68.66
72570;BME280;60594;50.204;8.844;2022-08-19T03:38:40;99549.56;;;20.81;68.32
72570;BME280;60594;50.204;8.844;2022-08-19T03:41:13;99554.97;;;20.81;68.59
72570;BME280;60594;50.204;8.844;2022-08-19T03:43:40;99548.91;;;20.79;68.53
72570;BME280;60594;50.204;8.844;2022-08-19T03:46:11;99548.69;;;20.67;68.66
72570;BME280;60594;50.204;8.844;2022-08-19T03:48:40;99547.22;;;20.65;68.87
72570;BME280;60594;50.204;8.844;2022-08-19T03:51:15;99551.78;;;20.64;69.00
72570;BME280;60594;50.204;8.844;2022-08-19T03:53:42;99545.50;;;20.57;69.15
72570;BME280;60594;50.204;8.844;2022-08-19T03:56:09;99550.31;;;20.55;69.42
72570;BME280;60594;50.204;8.844;2022-08-19T03:58:36;99544.66;;;20.50;69.63
72570;BME280;60594;50.204;8.844;2022-08-19T04:01:08;99551.31;;;20.54;69.49
72570;BME280;60594;50.204;8.844;2022-08-19T04:03:35;99547.34;;;20.50;69.63
72570;BME280;60594;50.204;8.844;2022-08-19T04:06:34;99555.06;;;20.53;69.65
72570;BME280;60594;50.204;8.844;2022-08-19T04:09:04;99565.72;;;20.55;69.83
72570;BME280;60594;50.204;8.844;2022-08-19T04:11:36;99562.34;;;20.53;69.53
72570;BME280;60594;50.204;8.844;2022-08-19T04:14:07;99560.88;;;20.50;70.01
72570;BME280;60594;50.204;8.844;2022-08-19T04:16:34;99563.19;;;20.47;70.31
72570;BME280;60594;50.204;8.844;2022-08-19T04:19:03;99550.63;;;20.33;70.55
72570;BME280;60594;50.204;8.844;2022-08-19T04:21:31;99567.72;;;20.40;70.70
72570;BME280;60594;50.204;8.844;2022-08-19T04:23:58;99573.63;;;20.50;70.03
72570;BME280;60594;50.204;8.844;2022-08-19T04:26:28;99565.41;;;20.37;70.73
72570;BME280;60594;50.204;8.844;2022-08-19T04:28:56;99564.78;;;20.35;70.44
72570;BME280;60594;50.204;8.844;2022-08-19T04:31:29;99568.78;;;20.39;70.66
72570;BME280;60594;50.204;8.844;2022-08-19T04:33:57;99565.88;;;20.40;70.37
72570;BME280;60594;50.204;8.844;2022-08-19T04:36:27;99558.09;;;20.31;70.46
72570;BME280;60594;50.204;8.844;2022-08-19T04:38:57;99566.09;;;20.45;70.16
72570;BME280;60594;50.204;8.844;2022-08-19T04:41:25;99568.19;;;20.50;69.93
72570;BME280;60594;50.204;8.844;2022-08-19T04:44:12;99570.22;;;20.35;70.88
72570;BME280;60594;50.204;8.844;2022-08-19T04:46:39;99567.41;;;20.22;70.99
72570;BME280;60594;50.204;8.844;2022-08-19T04:49:07;99582.63;;;20.23;70.94
72570;BME280;60594;50.204;8.844;2022-08-19T04:51:35;99582.09;;;20.40;70.47
72570;BME280;60594;50.204;8.844;2022-08-19T04:54:03;99568.78;;;20.39;70.67
72570;BME280;60594;50.204;8.844;2022-08-19T04:56:29;99569.19;;;20.42;70.53
72570;BME280;60594;50.204;8.844;2022-08-19T04:58:57;99571.31;;;20.53;69.98
72570;BME280;60594;50.204;8.844;2022-08-19T05:01:31;99578.84;;;20.51;69.78
72570;BME280;60594;50.204;8.844;2022-08-19T05:04:04;99557.28;;;20.37;69.97
72570;BME280;60594;50.204;8.844;2022-08-19T05:06:32;99574.41;;;20.44;70.65
72570;BME280;60594;50.204;8.844;2022-08-19T05:09:01;99572.34;;;20.46;70.12
72570;BME280;60594;50.204;8.844;2022-08-19T05:11:31;99567.56;;;20.48;70.12
72570;BME280;60594;50.204;8.844;2022-08-19T05:13:58;99564.81;;;20.41;70.54
72570;BME280;60594;50.204;8.844;2022-08-19T05:16:26;99580.59;;;20.38;71.19
72570;BME280;60594;50.204;8.844;2022-08-19T05:18:53;99579.41;;;20.40;70.97
72570;BME280;60594;50.204;8.844;2022-08-19T05:21:40;99570.41;;;20.33;71.24
72570;BME280;60594;50.204;8.844;2022-08-19T05:24:34;99576.44;;;20.35;71.04
72570;BME280;60594;50.204;8.844;2022-08-19T05:27:01;99581.47;;;20.38;71.27
72570;BME280;60594;50.204;8.844;2022-08-19T05:29:29;99594.81;;;20.46;71.59
72570;BME280;60594;50.204;8.844;2022-08-19T05:31:58;99583.81;;;20.54;70.74
72570;BME280;60594;50.204;8.844;2022-08-19T05:34:26;99587.53;;;20.47;71.05
72570;BME280;60594;50.204;8.844;2022-08-19T05:36:57;99578.00;;;20.57;70.67
72570;BME280;60594;50.204;8.844;2022-08-19T05:39:27;99580.31;;;20.60;70.99
72570;BME280;60594;50.204;8.844;2022-08-19T05:41:59;99583.44;;;20.64;70.58
72570;BME280;60594;50.204;8.844;2022-08-19T05:44:28;99601.81;;;20.68;70.55
72570;BME280;60594;50.204;8.844;2022-08-19T05:47:00;99593.00;;;20.60;71.38
72570;BME280;60594;50.204;8.844;2022-08-19T05:49:27;99591.50;;;20.44;72.03
72570;BME280;60594;50.204;8.844;2022-08-19T05:51:54;99602.38;;;20.57;71.26
72570;BME280;60594;50.204;8.844;2022-08-19T05:54:22;99602.44;;;20.70;71.18
72570;BME280;60594;50.204;8.844;2022-08-19T05:56:50;99595.59;;;20.74;71.00
72570;BME280;60594;50.204;8.844;2022-08-19T05:59:19;99594.91;;;20.59;71.42
72570;BME280;60594;50.204;8.844;2022-08-19T06:01:49;99599.94;;;20.69;71.85
72570;BME280;60594;50.204;8.844;2022-08-19T06:04:21;99598.28;;;20.74;71.56
72570;BME280;60594;50.204;8.844;2022-08-19T06:06:51;99616.31;;;20.95;69.71
72570;BME280;60594;50.204;8.844;2022-08-19T06:09:19;99602.72;;;20.88;70.22
72570;BME280;60594;50.204;8.844;2022-08-19T06:11:48;99616.03;;;20.83;70.33
72570;BME280;60594;50.204;8.844;2022-08-19T06:14:18;99612.41;;;20.63;70.99
72570;BME280;60594;50.204;8.844;2022-08-19T06:16:45;99607.16;;;20.55;71.99
72570;BME280;60594;50.204;8.844;2022-08-19T06:19:14;99613.44;;;20.62;72.03
72570;BME280;60594;50.204;8.844;2022-08-19T06:21:45;99625.78;;;20.71;71.78
72570;BME280;60594;50.204;8.844;2022-08-19T06:24:14;99636.13;;;20.61;71.54
72570;BME280;60594;50.204;8.844;2022-08-19T06:26:44;99643.31;;;20.82;71.18
72570;BME280;60594;50.204;8.844;2022-08-19T06:29:13;99647.09;;;20.87;71.10
72570;BME280;60594;50.204;8.844;2022-08-19T06:31:42;99649.47;;;20.97;70.28
72570;BME280;60594;50.204;8.844;2022-08-19T06:34:10;99653.69;;;21.19;69.13
72570;BME280;60594;50.204;8.844;2022-08-19T06:36:39;99652.50;;;21.34;68.17
72570;BME280;60594;50.204;8.844;2022-08-19T06:39:11;99651.25;;;21.37;68.63
72570;BME280;60594;50.204;8.844;2022-08-19T06:41:41;99658.38;;;21.44;67.76
72570;BME280;60594;50.204;8.844;2022-08-19T06:44:15;99657.13;;;21.47;67.93
72570;BME280;60594;50.204;8.844;2022-08-19T06:46:43;99670.25;;;21.43;68.01
72570;BME280;60594;50.204;8.844;2022-08-19T06:49:10;99667.53;;;21.43;67.52
72570;BME280;60594;50.204;8.844;2022-08-19T06:51:47;99677.16;;;21.52;67.90
72570;BME280;60594;50.204;8.844;2022-08-19T06:54:18;99664.22;;;21.48;68.08
72570;BME280;60594;50.204;8.844;2022-08-19T06:56:45;99656.28;;;21.46;67.24
72570;BME280;60594;50.204;8.844;2022-08-19T06:59:17;99668.63;;;21.55;67.54
72570;BME280;60594;50.204;8.844;2022-08-19T07:01:47;99657.78;;;21.55;67.30
72570;BME280;60594;50.204;8.844;2022-08-19T07:04:17;99670.09;;;21.71;66.80
72570;BME280;60594;50.204;8.844;2022-08-19T07:06:44;99654.03;;;21.69;66.20
72570;BME280;60594;50.204;8.844;2022-08-19T07:09:13;99658.63;;;21.69;66.23
72570;BME280;60594;50.204;8.844;2022-08-19T07:11:48;99665.53;;;21.71;65.87
72570;BME280;60594;50.204;8.844;2022-08-19T07:14:20;99659.69;;;21.68;66.29
72570;BME280;60594;50.204;8.844;2022-08-19T07:16:51;99669.72;;;21.74;66.91
72570;BME280;60594;50.204;8.844;2022-08-19T07:19:18;99676.63;;;21.83;66.65
72570;BME280;60594;50.204;8.844;2022-08-19T07:21:49;99672.84;;;21.84;66.14
72570;BME280;60594;50.204;8.844;2022-08-19T07:24:25;99679.53;;;21.88;66.40
72570;BME280;60594;50.204;8.844;2022-08-19T07:26:55;99673.69;;;21.78;66.54
72570;BME280;60594;50.204;8.844;2022-08-19T07:29:23;99678.69;;;21.81;67.22
72570;BME280;60594;50.204;8.844;2022-08-19T07:31:53;99683.09;;;22.01;65.56
72570;BME280;60594;50.204;8.844;2022-08-19T07:34:24;99679.56;;;22.07;66.21
72570;BME280;60594;50.204;8.844;2022-08-19T07:36:52;99683.91;;;22.15;65.85
72570;BME280;60594;50.204;8.844;2022-08-19T07:39:23;99685.81;;;22.21;64.82
72570;BME280;60594;50.204;8.844;2022-08-19T07:41:51;99663.25;;;22.20;64.83
72570;BME280;60594;50.204;8.844;2022-08-19T07:44:18;99670.34;;;22.34;64.41
72570;BME280;60594;50.204;8.844;2022-08-19T07:46:49;99689.38;;;22.47;64.31
72570;BME280;60594;50.204;8.844;2022-08-19T07:49:18;99680.16;;;22.48;64.66
72570;BME280;60594;50.204;8.844;2022-08-19T07:51:48;99687.69;;;22.53;64.29
72570;BME280;60594;50.204;8.844;2022-08-19T07:54:15;99674.94;;;22.60;62.43
72570;BME280;60594;50.204;8.844;2022-08-19T07:56:42;99681.59;;;22.70;63.16
72570;BME280;60594;50.204;8.844;2022-08-19T07:59:09;99685.31;;;22.82;61.53
72570;BME280;60594;50.204;8.844;2022-08-19T08:01:36;99683.66;;;22.75;61.85
72570;BME280;60594;50.204;8.844;2022-08-19T08:04:03;99683.66;;;22.81;61.58
72570;BME280;60594;50.204;8.844;2022-08-19T08:06:47;99702.59;;;22.94;61.33
72570;BME280;60594;50.204;8.844;2022-08-19T08:09:37;99694.47;;;23.01;61.47
72570;BME280;60594;50.204;8.844;2022-08-19T08:12:12;99698.56;;;23.17;61.38
72570;BME280;60594;50.204;8.844;2022-08-19T08:14:50;99705.25;;;23.21;61.24
72570;BME280;60594;50.204;8.844;2022-08-19T08:17:20;99688.94;;;23.21;60.36
72570;BME280;60594;50.204;8.844;2022-08-19T08:19:47;99694.28;;;23.40;60.86
72570;BME280;60594;50.204;8.844;2022-08-19T08:22:19;99699.25;;;23.56;59.07
72570;BME280;60594;50.204;8.844;2022-08-19T08:25:14;99686.44;;;23.57;58.75
72570;BME280;60594;50.204;8.844;2022-08-19T08:27:43;99693.50;;;23.71;58.44
72570;BME280;60594;50.204;8.844;2022-08-19T08:30:17;99700.16;;;23.75;57.12
72570;BME280;60594;50.204;8.844;2022-08-19T08:32:44;99696.53;;;23.56;58.67
72570;BME280;60594;50.204;8.844;2022-08-19T08:35:13;99691.34;;;23.42;58.51
72570;BME280;60594;50.204;8.844;2022-08-19T08:37:41;99706.13;;;23.59;58.17
72570;BME280;60594;50.204;8.844;2022-08-19T08:43:35;99704.72;;;23.81;57.59
72570;BME280;60594;50.204;8.844;2022-08-19T08:46:12;99699.44;;;23.86;58.02
72570;BME280;60594;50.204;8.844;2022-08-19T08:51:20;99708.00;;;23.96;57.89
72570;BME280;60594;50.204;8.844;2022-08-19T08:53:51;99692.13;;;23.86;57.17
72570;BME280;60594;50.204;8.844;2022-08-19T08:56:18;99705.09;;;23.91;58.39
72570;BME280;60594;50.204;8.844;2022-08-19T09:01:22;99698.97;;;24.02;56.80
72570;BME280;60594;50.204;8.844;2022-08-19T09:03:49;99701.84;;;24.07;57.77
72570;BME280;60594;50.204;8.844;2022-08-19T09:09:23;99694.00;;;24.41;57.13
72570;BME280;60594;50.204;8.844;2022-08-19T09:12:05;99690.97;;;24.74;54.98
72570;BME280;60594;50.204;8.844;2022-08-19T09:17:16;99683.41;;;24.76;55.24
72570;BME280;60594;50.204;8.844;2022-08-19T09:22:41;99687.50;;;25.03;53.00
72570;BME280;60594;50.204;8.844;2022-08-19T09:25:17;99682.38;;;25.24;54.32
72570;BME280;60594;50.204;8.844;2022-08-19T09:27:44;99685.91;;;25.31;52.82
72570;BME280;60594;50.204;8.844;2022-08-19T09:30:16;99680.47;;;25.61;53.76
72570;BME280;60594;50.204;8.844;2022-08-19T09:32:45;99681.88;;;25.63;52.05
72570;BME280;60594;50.204;8.844;2022-08-19T09:35:13;99677.72;;;25.31;52.82
72570;BME280;60594;50.204;8.844;2022-08-19T09:37:41;99685.09;;;25.31;53.09
72570;BME280;60594;50.204;8.844;2022-08-19T09:40:10;99685.69;;;25.62;53.08
72570;BME280;60594;50.204;8.844;2022-08-19T09:42:37;99686.19;;;26.01;51.92
72570;BME280;60594;50.204;8.844;2022-08-19T09:45:04;99682.84;;;25.98;50.12
72570;BME280;60594;50.204;8.844;2022-08-19T09:47:31;99675.47;;;25.99;48.61
72570;BME280;60594;50.204;8.844;2022-08-19T09:49:58;99673.75;;;26.16;48.61
72570;BME280;60594;50.204;8.844;2022-08-19T09:52:25;99674.94;;;26.20;48.30
72570;BME280;60594;50.204;8.844;2022-08-19T09:54:52;99664.00;;;26.43;49.23
72570;BME280;60594;50.204;8.844;2022-08-19T09:57:19;99679.94;;;26.81;46.58
72570;BME280;60594;50.204;8.844;2022-08-19T09:59:47;99669.34;;;26.73;47.72
72570;BME280;60594;50.204;8.844;2022-08-19T10:02:14;99653.44;;;26.35;47.82
72570;BME280;60594;50.204;8.844;2022-08-19T10:04:41;99670.06;;;26.11;46.71
72570;BME280;60594;50.204;8.844;2022-08-19T10:07:26;99674.31;;;26.07;47.82
72570;BME280;60594;50.204;8.844;2022-08-19T10:09:53;99671.81;;;26.17;46.99
72570;BME280;60594;50.204;8.844;2022-08-19T10:12:19;99677.88;;;26.30;46.61
72570;BME280;60594;50.204;8.844;2022-08-19T10:14:47;99668.31;;;26.62;47.48
72570;BME280;60594;50.204;8.844;2022-08-19T10:17:14;99670.28;;;27.01;46.49
72570;BME280;60594;50.204;8.844;2022-08-19T10:19:40;99657.16;;;27.15;45.07
72570;BME280;60594;50.204;8.844;2022-08-19T10:22:07;99675.13;;;27.11;45.52
72570;BME280;60594;50.204;8.844;2022-08-19T10:24:34;99671.22;;;26.95;46.92
72570;BME280;60594;50.204;8.844;2022-08-19T10:27:01;99669.09;;;26.97;46.17
72570;BME280;60594;50.204;8.844;2022-08-19T10:29:32;99669.13;;;26.63;46.27
72570;BME280;60594;50.204;8.844;2022-08-19T10:32:02;99666.63;;;26.38;46.98
72570;BME280;60594;50.204;8.844;2022-08-19T10:34:31;99667.06;;;26.24;45.73
72570;BME280;60594;50.204;8.844;2022-08-19T10:36:58;99661.75;;;26.63;46.56
72570;BME280;60594;50.204;8.844;2022-08-19T10:39:26;99659.41;;;27.06;44.12
72570;BME280;60594;50.204;8.844;2022-08-19T10:41:58;99654.66;;;27.25;44.54
72570;BME280;60594;50.204;8.844;2022-08-19T10:44:25;99654.66;;;27.13;43.79
72570;BME280;60594;50.204;8.844;2022-08-19T10:46:51;99651.34;;;27.00;45.05
72570;BME280;60594;50.204;8.844;2022-08-19T10:49:19;99658.31;;;27.19;44.37
72570;BME280;60594;50.204;8.844;2022-08-19T10:51:51;99653.09;;;27.17;43.93
72570;BME280;60594;50.204;8.844;2022-08-19T10:54:39;99649.41;;;27.23;44.52
72570;BME280;60594;50.204;8.844;2022-08-19T10:57:24;99645.03;;;27.39;43.56
72570;BME280;60594;50.204;8.844;2022-08-19T10:59:55;99648.53;;;27.34;44.33
72570;BME280;60594;50.204;8.844;2022-08-19T11:02:22;99649.25;;;27.30;44.28
72570;BME280;60594;50.204;8.844;2022-08-19T11:04:49;99646.47;;;27.02;44.59
72570;BME280;60594;50.204;8.844;2022-08-19T11:07:17;99640.81;;;26.80;44.07
72570;BME280;60594;50.204;8.844;2022-08-19T11:09:44;99642.47;;;26.81;42.78
72570;BME280;60594;50.204;8.844;2022-08-19T11:12:14;99631.13;;;27.01;43.26
72570;BME280;60594;50.204;8.844;2022-08-19T11:14:41;99632.00;;;27.29;42.44
72570;BME280;60594;50.204;8.844;2022-08-19T11:17:08;99612.94;;;27.34;40.82
72570;BME280;60594;50.204;8.844;2022-08-19T11:19:37;99605.53;;;27.63;41.24
72570;BME280;60594;50.204;8.844;2022-08-19T11:22:07;99606.50;;;27.85;41.50
72570;BME280;60594;50.204;8.844;2022-08-19T11:24:35;99582.81;;;27.95;40.98
72570;BME280;60594;50.204;8.844;2022-08-19T11:27:08;99602.50;;;27.92;41.02
72570;BME280;60594;50.204;8.844;2022-08-19T11:29:38;99592.69;;;27.80;40.52
72570;BME280;60594;50.204;8.844;2022-08-19T11:32:07;99596.03;;;27.98;40.02
72570;BME280;60594;50.204;8.844;2022-08-19T11:34:34;99596.19;;;28.08;42.11
72570;BME280;60594;50.204;8.844;2022-08-19T11:37:01;99603.91;;;28.44;39.58
72570;BME280;60594;50.204;8.844;2022-08-19T11:39:31;99597.72;;;28.54;38.97
72570;BME280;60594;50.204;8.844;2022-08-19T11:41:58;99600.56;;;28.42;38.88
72570;BME280;60594;50.204;8.844;2022-08-19T11:44:25;99604.81;;;28.33;39.33
72570;BME280;60594;50.204;8.844;2022-08-19T11:46:53;99590.25;;;28.49;40.28
72570;BME280;60594;50.204;8.844;2022-08-19T11:49:19;99595.44;;;28.67;38.91
72570;BME280;60594;50.204;8.844;2022-08-19T11:51:47;99589.44;;;28.70;39.32
72570;BME280;60594;50.204;8.844;2022-08-19T11:54:18;99586.59;;;29.04;37.68
72570;BME280;60594;50.204;8.844;2022-08-19T11:56:45;99583.03;;;29.30;37.69
72570;BME280;60594;50.204;8.844;2022-08-19T11:59:13;99572.94;;;29.35;36.29
72570;BME280;60594;50.204;8.844;2022-08-19T12:01:40;99580.44;;;29.45;35.62
72570;BME280;60594;50.204;8.844;2022-08-19T12:04:08;99563.44;;;29.48;35.02
72570;BME280;60594;50.204;8.844;2022-08-19T12:06:37;99583.13;;;29.61;35.93
72570;BME280;60594;50.204;8.844;2022-08-19T12:09:06;99562.53;;;29.64;34.08
72570;BME280;60594;50.204;8.844;2022-08-19T12:11:37;99575.28;;;29.80;35.96
72570;BME280;60594;50.204;8.844;2022-08-19T12:14:04;99576.28;;;29.69;36.66
72570;BME280;60594;50.204;8.844;2022-08-19T12:16:32;99574.00;;;29.87;36.35
72570;BME280;60594;50.204;8.844;2022-08-19T12:19:01;99582.78;;;30.21;34.62
72570;BME280;60594;50.204;8.844;2022-08-19T12:21:32;99565.97;;;29.54;34.71
72570;BME280;60594;50.204;8.844;2022-08-19T12:24:00;99571.03;;;29.09;35.38
72570;BME280;60594;50.204;8.844;2022-08-19T12:26:28;99577.50;;;28.60;36.95
72570;BME280;60594;50.204;8.844;2022-08-19T12:28:55;99568.81;;;28.30;37.64
72570;BME280;60594;50.204;8.844;2022-08-19T12:31:22;99583.91;;;28.11;39.27
72570;BME280;60594;50.204;8.844;2022-08-19T12:33:48;99570.28;;;27.83;38.91
72570;BME280;60594;50.204;8.844;2022-08-19T12:36:15;99566.97;;;27.97;39.13
72570;BME280;60594;50.204;8.844;2022-08-19T12:38:43;99566.69;;;28.32;39.48
72570;BME280;60594;50.204;8.844;2022-08-19T12:41:14;99561.25;;;28.53;38.43
72570;BME280;60594;50.204;8.844;2022-08-19T12:43:41;99560.97;;;28.76;37.82
72570;BME280;60594;50.204;8.844;2022-08-19T12:46:09;99562.72;;;28.82;36.67
72570;BME280;60594;50.204;8.844;2022-08-19T12:48:36;99551.56;;;28.94;37.30
72570;BME280;60594;50.204;8.844;2022-08-19T12:51:12;99556.56;;;29.19;35.84
72570;BME280;60594;50.204;8.844;2022-08-19T12:53:43;99549.88;;;29.10;36.73
72570;BME280;60594;50.204;8.844;2022-08-19T12:56:11;99550.34;;;29.02;36.55
72570;BME280;60594;50.204;8.844;2022-08-19T12:58:37;99550.97;;;28.87;35.48
72570;BME280;60594;50.204;8.844;2022-08-19T13:01:10;99559.00;;;28.72;36.42
72570;BME280;60594;50.204;8.844;2022-08-19T13:03:38;99554.28;;;28.67;37.19
72570;BME280;60594;50.204;8.844;2022-08-19T13:06:05;99559.78;;;28.67;37.40
72570;BME280;60594;50.204;8.844;2022-08-19T13:08:32;99563.41;;;28.73;37.74
72570;BME280;60594;50.204;8.844;2022-08-19T13:11:07;99552.38;;;28.89;37.48
72570;BME280;60594;50.204;8.844;2022-08-19T13:13:39;99559.31;;;29.19;37.42
72570;BME280;60594;50.204;8.844;2022-08-19T13:16:08;99558.25;;;29.25;34.36
72570;BME280;60594;50.204;8.844;2022-08-19T13:18:39;99569.53;;;29.02;34.43
72570;BME280;60594;50.204;8.844;2022-08-19T13:21:08;99563.59;;;28.66;34.95
72570;BME280;60594;50.204;8.844;2022-08-19T13:23:35;99561.78;;;28.17;36.02
72570;BME280;60594;50.204;8.844;2022-08-19T13:26:04;99571.09;;;28.16;36.78
72570;BME280;60594;50.204;8.844;2022-08-19T13:28:31;99560.47;;;28.03;37.06